Terminal Aerodrome Forecast
Issued by NWS

Home | Current Version | Previous Version | Text Only | Print | Product List | Glossary On
Versions: 1 2 3 4 5 6 7 8 9 10 11 12 13 14 15 16 17 18 19 20 21 22
000
FTUS43 KDTX 241729
TAFYIP
TAF
KYIP 241729Z 2418/2518 18013G23KT P6SM BKN040
     FM242100 21015G30KT P6SM VCTS BKN040CB
     FM250100 19014G24KT 4SM -SHRA SCT010 OVC025
      TEMPO 2501/2504 3SM TSRA OVC008CB
     FM250600 26015G25KT P6SM SCT010 BKN080
     FM251500 25015G28KT P6SM -SHSN OVC020=

USA.gov is the U.S. government's official web portal to all federal, state and local government web resources and services.